Girolata — FPOD — position and weather

sailwx.info

Track history (hours):
 
Tides and Currents Weather Stations Pressure Air Temp Water Temp Dewpoint Dewpoint Depression Visibility Wind Speed Wind Dir Waves Ship Positions

Girolata

Last reported at 2019-Jul-19 19:30 UTC. Time now 2019-Jul-19 19:42 UTC.
Position N 42°02' E 008°02'.

Length 177 m; beam 27 m.

Type: Ship. MMSI: 226245000.

Date/timePositionNaut miles runAvg speedWind from/ knotsBaromVisibWave heightAir tempDewpointWater temp
2019-Jul-19 19:30N 42°02' E 008°02'816.5
2019-Jul-19 19:00N 41°58' E 008°11'816.9
2019-Jul-19 18:30N 41°54' E 008°21'917.3
2019-Jul-19 18:01N 41°50' E 008°31'714.7
2019-Jul-19 17:31N 41°51' E 008°41'5 9.4
2019-Jul-19 16:59N 41°56' E 008°45'0 0.0
2019-Jul-19 16:29N 41°56' E 008°45'0 0.0
2019-Jul-19 15:56N 41°56' E 008°45'0 0.0
2019-Jul-19 15:23N 41°56' E 008°45'0 0.0
2019-Jul-19 05:29N 41°56' E 008°45'4 2.2
2019-Jul-19 03:40N 41°52' E 008°42'317.6
2019-Jul-19 03:30N 41°50' E 008°39'815.9
2019-Jul-19 03:00N 41°51' E 008°28'816.9
2019-Jul-19 02:30N 41°55' E 008°18'916.9
2019-Jul-19 02:00N 41°59' E 008°08'917.1
2019-Jul-19 01:30N 42°03' E 007°58'1417.0
2019-Jul-19 00:41N 42°10' E 007°42'416.7
2019-Jul-19 00:26N 42°12' E 007°37'816.7
2019-Jul-18 23:57N 42°16' E 007°28'1316.8
2019-Jul-18 23:09N 42°22' E 007°12'1117.2
2019-Jul-18 22:30N 42°28' E 006°59'1117.3
2019-Jul-18 21:51N 42°34' E 006°46'1117.9
2019-Jul-18 21:13N 42°39' E 006°32'718.3
2019-Jul-18 20:50N 42°43' E 006°23'28 1.5
2019-Jul-18 02:24N 42°57' E 005°51'1214.3
2019-Jul-18 01:33N 42°51' E 006°05'117.2
2019-Jul-18 01:30N 42°51' E 006°06'1217.0
2019-Jul-18 00:50N 42°45' E 006°20'1416.4
2019-Jul-18 00:00N 42°38' E 006°36'816.3
2019-Jul-17 23:30N 42°34' E 006°45'816.2
2019-Jul-17 23:00N 42°31' E 006°55'816.8
2019-Jul-17 22:30N 42°26' E 007°05'917.2
2019-Jul-17 22:00N 42°22' E 007°15'816.9
2019-Jul-17 21:30N 42°17' E 007°24'816.5
2019-Jul-17 21:00N 42°13' E 007°34'816.6
2019-Jul-17 20:30N 42°09' E 007°44'816.5
2019-Jul-17 20:00N 42°05' E 007°54'816.4
2019-Jul-17 19:30N 42°01' E 008°04'816.4
2019-Jul-17 19:00N 41°57' E 008°13'816.8
2019-Jul-17 18:30N 41°53' E 008°23'917.5
2019-Jul-17 18:00N 41°50' E 008°34'916.0
2019-Jul-17 17:28N 41°53' E 008°45'3 6.0
2019-Jul-17 17:00N 41°56' E 008°45'0 0.0
2019-Jul-17 16:24N 41°56' E 008°45'0 0.0
2019-Jul-17 12:48N 41°56' E 008°45'0 0.0
2019-Jul-17 11:42N 41°56' E 008°45'4 0.5
2019-Jul-17 03:41N 41°52' E 008°42'318.2
2019-Jul-17 03:30N 41°50' E 008°38'917.1
2019-Jul-17 03:00N 41°51' E 008°27'918.0
2019-Jul-17 02:30N 41°55' E 008°16'918.3
2019-Jul-17 02:00N 41°59' E 008°06'918.0
2019-Jul-17 01:30N 42°04' E 007°55'917.9
2019-Jul-17 01:00N 42°09' E 007°45'918.0
2019-Jul-17 00:30N 42°13' E 007°35'918.1
2019-Jul-17 00:00N 42°18' E 007°24'918.1
2019-Jul-16 23:30N 42°22' E 007°13'918.1
2019-Jul-16 23:00N 42°26' E 007°02'2418.6
2019-Jul-16 21:42N 42°39' E 006°34'619.6
2019-Jul-16 21:22N 42°42' E 006°26'2319.1
2019-Jul-16 20:10N 42°53' E 005°59'319.0
2019-Jul-16 19:59N 42°55' E 005°55'3118.9
2019-Jul-16 18:20N 43°10' E 005°17'9 2.2
2019-Jul-16 14:04N 43°19' E 005°22'0 0.0
2019-Jul-16 13:55N 43°19' E 005°22'0 0.0
2019-Jul-16 13:28N 43°19' E 005°22'0 0.0
2019-Jul-16 12:58N 43°19' E 005°22'0 0.0
2019-Jul-16 12:28N 43°19' E 005°22'62 5.3
2019-Jul-16 00:46N 42°53' E 006°39'2217.8
2019-Jul-15 23:32N 42°50' E 007°09'118.7
2019-Jul-15 23:30N 42°50' E 007°09'918.5
2019-Jul-15 23:01N 42°49' E 007°22'918.7
2019-Jul-15 22:31N 42°47' E 007°34'918.6
2019-Jul-15 22:01N 42°45' E 007°47'918.6
2019-Jul-15 21:30N 42°43' E 007°59'816.2
2019-Jul-15 21:00N 42°35' E 008°03'52 3.2
2019-Jul-15 04:24N 41°49' E 008°36'6616.0
2019-Jul-15 00:15N 42°20' E 007°16'60 2.7
2019-Jul-14 02:13N 42°51' E 006°06'715.9
2019-Jul-14 01:48N 42°47' E 006°14'515.9
2019-Jul-14 01:30N 42°45' E 006°19'1215.5
2019-Jul-14 00:43N 42°39' E 006°34'315.4
2019-Jul-14 00:30N 42°38' E 006°38'815.1
2019-Jul-14 00:00N 42°34' E 006°47'714.6
2019-Jul-13 23:30N 42°30' E 006°55'714.7
2019-Jul-13 23:00N 42°27' E 007°04'714.9
2019-Jul-13 22:30N 42°23' E 007°13'815.2
2019-Jul-13 22:01N 42°19' E 007°21'815.7
2019-Jul-13 21:31N 42°15' E 007°31'815.5
2019-Jul-13 21:00N 42°11' E 007°40'815.4
2019-Jul-13 20:30N 42°07' E 007°49'815.4
2019-Jul-13 20:01N 42°04' E 007°58'815.3
2019-Jul-13 19:30N 41°60' E 008°07'815.6
2019-Jul-13 19:00N 41°56' E 008°16'714.6
2019-Jul-13 18:30N 41°52' E 008°24'815.1
2019-Jul-13 18:00N 41°50' E 008°34'1013.9
2019-Jul-13 17:17N 41°55' E 008°45'1 2.9
2019-Jul-13 17:00N 41°56' E 008°45'0 0.0
2019-Jul-13 15:46N 41°56' E 008°45'0 0.0
2019-Jul-13 15:31N 41°56' E 008°45'0 0.0
2019-Jul-13 15:00N 41°56' E 008°45'0 0.0
2019-Jul-13 12:12N 41°56' E 008°45'0 0.0
2019-Jul-13 12:01N 41°56' E 008°45'0 0.0
2019-Jul-13 10:48N 41°56' E 008°45'15 1.9
2019-Jul-13 02:52N 41°52' E 008°25'717.9
2019-Jul-13 02:30N 41°55' E 008°17'917.6
2019-Jul-13 02:01N 41°60' E 008°07'917.5
2019-Jul-13 01:31N 42°04' E 007°57'917.4
2019-Jul-13 01:00N 42°08' E 007°47'917.4
2019-Jul-13 00:31N 42°12' E 007°36'917.4
2019-Jul-13 00:01N 42°17' E 007°26'917.7
2019-Jul-12 23:30N 42°21' E 007°15'917.7
2019-Jul-12 23:00N 42°25' E 007°05'917.9
2019-Jul-12 22:30N 42°30' E 006°55'1017.6
2019-Jul-12 21:55N 42°35' E 006°42'717.6
2019-Jul-12 21:31N 42°39' E 006°34'917.7
2019-Jul-12 21:00N 42°43' E 006°23'1217.5
2019-Jul-12 20:21N 42°48' E 006°09'1117.6
2019-Jul-12 19:45N 42°53' E 005°57'617.4
2019-Jul-12 19:24N 42°56' E 005°49'25 1.3
2019-Jul-12 00:44N 42°44' E 006°19'416.4
2019-Jul-12 00:30N 42°42' E 006°23'816.3
2019-Jul-12 00:00N 42°38' E 006°33'816.3
2019-Jul-11 23:30N 42°34' E 006°42'1216.4
2019-Jul-11 22:46N 42°28' E 006°56'716.5
2019-Jul-11 22:20N 42°25' E 007°05'616.8
2019-Jul-11 22:00N 42°23' E 007°12'1016.8
2019-Jul-11 21:25N 42°18' E 007°24'716.6
2019-Jul-11 21:00N 42°15' E 007°32'816.0
2019-Jul-11 20:30N 42°10' E 007°41'1116.3
2019-Jul-11 19:50N 42°05' E 007°54'616.9
2019-Jul-11 19:30N 42°03' E 008°00'918.1
2019-Jul-11 19:00N 41°58' E 008°11'918.0
2019-Jul-11 18:30N 41°54' E 008°21'918.0
2019-Jul-11 18:01N 41°49' E 008°32'917.2
2019-Jul-11 17:31N 41°53' E 008°43'3 5.9
2019-Jul-11 16:57N 41°56' E 008°45'0 0.0
2019-Jul-11 16:27N 41°56' E 008°45'0 0.0
2019-Jul-11 15:57N 41°56' E 008°45'0 0.0
2019-Jul-11 15:24N 41°56' E 008°45'0 0.0
2019-Jul-11 12:47N 41°56' E 008°45'8 0.9
2019-Jul-11 03:25N 41°50' E 008°37'1317.2
2019-Jul-11 02:38N 41°54' E 008°20'1418.1
2019-Jul-11 01:52N 42°01' E 008°03'718.2
2019-Jul-11 01:29N 42°04' E 007°55'1018.4
2019-Jul-11 00:56N 42°09' E 007°44'1019.0
2019-Jul-11 00:25N 42°15' E 007°32'819.4
2019-Jul-11 00:01N 42°18' E 007°23'1019.4
2019-Jul-10 23:31N 42°23' E 007°11'1019.1
2019-Jul-10 23:01N 42°27' E 006°60'1019.4
2019-Jul-10 22:30N 42°32' E 006°49'1019.3
2019-Jul-10 22:01N 42°37' E 006°37'1019.1
2019-Jul-10 21:30N 42°42' E 006°26'918.5
2019-Jul-10 21:01N 42°46' E 006°15'918.2
2019-Jul-10 20:30N 42°50' E 006°03'16 0.9
2019-Jul-10 02:39N 42°59' E 005°45'317.6
2019-Jul-10 02:29N 42°58' E 005°48'817.5
2019-Jul-10 02:00N 42°54' E 005°58'917.2
2019-Jul-10 01:30N 42°50' E 006°09'917.0
2019-Jul-10 01:00N 42°45' E 006°19'816.9
2019-Jul-10 00:30N 42°41' E 006°29'917.0
2019-Jul-10 00:00N 42°36' E 006°38'917.0
2019-Jul-09 23:30N 42°32' E 006°48'1617.2
2019-Jul-09 22:35N 42°25' E 007°07'217.2
2019-Jul-09 22:28N 42°24' E 007°10'817.0
2019-Jul-09 22:00N 42°20' E 007°19'917.5
2019-Jul-09 21:30N 42°15' E 007°29'917.7
2019-Jul-09 21:00N 42°11' E 007°40'917.6
2019-Jul-09 20:30N 42°07' E 007°50'817.0
2019-Jul-09 20:00N 42°03' E 008°00'  
Track history (hours):
 
Tides and Currents Weather Stations Pressure Air Temp Water Temp Dewpoint Dewpoint Depression Visibility Wind Speed Wind Dir Waves Ship Positions

Girolata

Last reported at 2019-Jul-19 19:30 UTC. Time now 2019-Jul-19 19:42 UTC.
Position N 42°02' E 008°02'.

Length 177 m; beam 27 m.

Type: Ship. MMSI: 226245000.

Date/timePositionNaut miles runAvg speedWind from/ knotsBaromVisibWave heightAir tempDewpointWater temp
2019-Jul-19 19:30N 42°02' E 008°02'816.5
2019-Jul-19 19:00N 41°58' E 008°11'816.9
2019-Jul-19 18:30N 41°54' E 008°21'917.3
2019-Jul-19 18:01N 41°50' E 008°31'714.7
2019-Jul-19 17:31N 41°51' E 008°41'5 9.4
2019-Jul-19 16:59N 41°56' E 008°45'0 0.0
2019-Jul-19 16:29N 41°56' E 008°45'0 0.0
2019-Jul-19 15:56N 41°56' E 008°45'0 0.0
2019-Jul-19 15:23N 41°56' E 008°45'0 0.0
2019-Jul-19 05:29N 41°56' E 008°45'4 2.2
2019-Jul-19 03:40N 41°52' E 008°42'317.6
2019-Jul-19 03:30N 41°50' E 008°39'815.9
2019-Jul-19 03:00N 41°51' E 008°28'816.9
2019-Jul-19 02:30N 41°55' E 008°18'916.9
2019-Jul-19 02:00N 41°59' E 008°08'917.1
2019-Jul-19 01:30N 42°03' E 007°58'1417.0
2019-Jul-19 00:41N 42°10' E 007°42'416.7
2019-Jul-19 00:26N 42°12' E 007°37'816.7
2019-Jul-18 23:57N 42°16' E 007°28'1316.8
2019-Jul-18 23:09N 42°22' E 007°12'1117.2
2019-Jul-18 22:30N 42°28' E 006°59'1117.3
2019-Jul-18 21:51N 42°34' E 006°46'1117.9
2019-Jul-18 21:13N 42°39' E 006°32'718.3
2019-Jul-18 20:50N 42°43' E 006°23'28 1.5
2019-Jul-18 02:24N 42°57' E 005°51'1214.3
2019-Jul-18 01:33N 42°51' E 006°05'117.2
2019-Jul-18 01:30N 42°51' E 006°06'1217.0
2019-Jul-18 00:50N 42°45' E 006°20'1416.4
2019-Jul-18 00:00N 42°38' E 006°36'816.3
2019-Jul-17 23:30N 42°34' E 006°45'816.2
2019-Jul-17 23:00N 42°31' E 006°55'816.8
2019-Jul-17 22:30N 42°26' E 007°05'917.2
2019-Jul-17 22:00N 42°22' E 007°15'816.9
2019-Jul-17 21:30N 42°17' E 007°24'816.5
2019-Jul-17 21:00N 42°13' E 007°34'816.6
2019-Jul-17 20:30N 42°09' E 007°44'816.5
2019-Jul-17 20:00N 42°05' E 007°54'816.4
2019-Jul-17 19:30N 42°01' E 008°04'816.4
2019-Jul-17 19:00N 41°57' E 008°13'816.8
2019-Jul-17 18:30N 41°53' E 008°23'917.5
2019-Jul-17 18:00N 41°50' E 008°34'916.0
2019-Jul-17 17:28N 41°53' E 008°45'3 6.0
2019-Jul-17 17:00N 41°56' E 008°45'0 0.0
2019-Jul-17 16:24N 41°56' E 008°45'0 0.0
2019-Jul-17 12:48N 41°56' E 008°45'0 0.0
2019-Jul-17 11:42N 41°56' E 008°45'4 0.5
2019-Jul-17 03:41N 41°52' E 008°42'318.2
2019-Jul-17 03:30N 41°50' E 008°38'917.1
2019-Jul-17 03:00N 41°51' E 008°27'918.0
2019-Jul-17 02:30N 41°55' E 008°16'918.3
2019-Jul-17 02:00N 41°59' E 008°06'918.0
2019-Jul-17 01:30N 42°04' E 007°55'917.9
2019-Jul-17 01:00N 42°09' E 007°45'918.0
2019-Jul-17 00:30N 42°13' E 007°35'918.1
2019-Jul-17 00:00N 42°18' E 007°24'918.1
2019-Jul-16 23:30N 42°22' E 007°13'918.1
2019-Jul-16 23:00N 42°26' E 007°02'2418.6
2019-Jul-16 21:42N 42°39' E 006°34'619.6
2019-Jul-16 21:22N 42°42' E 006°26'2319.1
2019-Jul-16 20:10N 42°53' E 005°59'319.0
2019-Jul-16 19:59N 42°55' E 005°55'3118.9
2019-Jul-16 18:20N 43°10' E 005°17'9 2.2
2019-Jul-16 14:04N 43°19' E 005°22'0 0.0
2019-Jul-16 13:55N 43°19' E 005°22'0 0.0
2019-Jul-16 13:28N 43°19' E 005°22'0 0.0
2019-Jul-16 12:58N 43°19' E 005°22'0 0.0
2019-Jul-16 12:28N 43°19' E 005°22'62 5.3
2019-Jul-16 00:46N 42°53' E 006°39'2217.8
2019-Jul-15 23:32N 42°50' E 007°09'118.7
2019-Jul-15 23:30N 42°50' E 007°09'918.5
2019-Jul-15 23:01N 42°49' E 007°22'918.7
2019-Jul-15 22:31N 42°47' E 007°34'918.6
2019-Jul-15 22:01N 42°45' E 007°47'918.6
2019-Jul-15 21:30N 42°43' E 007°59'816.2
2019-Jul-15 21:00N 42°35' E 008°03'52 3.2
2019-Jul-15 04:24N 41°49' E 008°36'6616.0
2019-Jul-15 00:15N 42°20' E 007°16'60 2.7
2019-Jul-14 02:13N 42°51' E 006°06'715.9
2019-Jul-14 01:48N 42°47' E 006°14'515.9
2019-Jul-14 01:30N 42°45' E 006°19'1215.5
2019-Jul-14 00:43N 42°39' E 006°34'315.4
2019-Jul-14 00:30N 42°38' E 006°38'815.1
2019-Jul-14 00:00N 42°34' E 006°47'714.6
2019-Jul-13 23:30N 42°30' E 006°55'714.7
2019-Jul-13 23:00N 42°27' E 007°04'714.9
2019-Jul-13 22:30N 42°23' E 007°13'815.2
2019-Jul-13 22:01N 42°19' E 007°21'815.7
2019-Jul-13 21:31N 42°15' E 007°31'815.5
2019-Jul-13 21:00N 42°11' E 007°40'815.4
2019-Jul-13 20:30N 42°07' E 007°49'815.4
2019-Jul-13 20:01N 42°04' E 007°58'815.3
2019-Jul-13 19:30N 41°60' E 008°07'815.6
2019-Jul-13 19:00N 41°56' E 008°16'714.6
2019-Jul-13 18:30N 41°52' E 008°24'815.1
2019-Jul-13 18:00N 41°50' E 008°34'1013.9
2019-Jul-13 17:17N 41°55' E 008°45'1 2.9
2019-Jul-13 17:00N 41°56' E 008°45'0 0.0
2019-Jul-13 15:46N 41°56' E 008°45'0 0.0
2019-Jul-13 15:31N 41°56' E 008°45'0 0.0
2019-Jul-13 15:00N 41°56' E 008°45'0 0.0
2019-Jul-13 12:12N 41°56' E 008°45'0 0.0
2019-Jul-13 12:01N 41°56' E 008°45'0 0.0
2019-Jul-13 10:48N 41°56' E 008°45'15 1.9
2019-Jul-13 02:52N 41°52' E 008°25'717.9
2019-Jul-13 02:30N 41°55' E 008°17'917.6
2019-Jul-13 02:01N 41°60' E 008°07'917.5
2019-Jul-13 01:31N 42°04' E 007°57'917.4
2019-Jul-13 01:00N 42°08' E 007°47'917.4
2019-Jul-13 00:31N 42°12' E 007°36'917.4
2019-Jul-13 00:01N 42°17' E 007°26'917.7
2019-Jul-12 23:30N 42°21' E 007°15'917.7
2019-Jul-12 23:00N 42°25' E 007°05'917.9
2019-Jul-12 22:30N 42°30' E 006°55'1017.6
2019-Jul-12 21:55N 42°35' E 006°42'717.6
2019-Jul-12 21:31N 42°39' E 006°34'917.7
2019-Jul-12 21:00N 42°43' E 006°23'1217.5
2019-Jul-12 20:21N 42°48' E 006°09'1117.6
2019-Jul-12 19:45N 42°53' E 005°57'617.4
2019-Jul-12 19:24N 42°56' E 005°49'25 1.3
2019-Jul-12 00:44N 42°44' E 006°19'416.4
2019-Jul-12 00:30N 42°42' E 006°23'816.3
2019-Jul-12 00:00N 42°38' E 006°33'816.3
2019-Jul-11 23:30N 42°34' E 006°42'1216.4
2019-Jul-11 22:46N 42°28' E 006°56'716.5
2019-Jul-11 22:20N 42°25' E 007°05'616.8
2019-Jul-11 22:00N 42°23' E 007°12'1016.8
2019-Jul-11 21:25N 42°18' E 007°24'716.6
2019-Jul-11 21:00N 42°15' E 007°32'816.0
2019-Jul-11 20:30N 42°10' E 007°41'1116.3
2019-Jul-11 19:50N 42°05' E 007°54'616.9
2019-Jul-11 19:30N 42°03' E 008°00'918.1
2019-Jul-11 19:00N 41°58' E 008°11'918.0
2019-Jul-11 18:30N 41°54' E 008°21'918.0
2019-Jul-11 18:01N 41°49' E 008°32'917.2
2019-Jul-11 17:31N 41°53' E 008°43'3 5.9
2019-Jul-11 16:57N 41°56' E 008°45'0 0.0
2019-Jul-11 16:27N 41°56' E 008°45'0 0.0
2019-Jul-11 15:57N 41°56' E 008°45'0 0.0
2019-Jul-11 15:24N 41°56' E 008°45'0 0.0
2019-Jul-11 12:47N 41°56' E 008°45'8 0.9
2019-Jul-11 03:25N 41°50' E 008°37'1317.2
2019-Jul-11 02:38N 41°54' E 008°20'1418.1
2019-Jul-11 01:52N 42°01' E 008°03'718.2
2019-Jul-11 01:29N 42°04' E 007°55'1018.4
2019-Jul-11 00:56N 42°09' E 007°44'1019.0
2019-Jul-11 00:25N 42°15' E 007°32'819.4
2019-Jul-11 00:01N 42°18' E 007°23'1019.4
2019-Jul-10 23:31N 42°23' E 007°11'1019.1
2019-Jul-10 23:01N 42°27' E 006°60'1019.4
2019-Jul-10 22:30N 42°32' E 006°49'1019.3
2019-Jul-10 22:01N 42°37' E 006°37'1019.1
2019-Jul-10 21:30N 42°42' E 006°26'918.5
2019-Jul-10 21:01N 42°46' E 006°15'918.2
2019-Jul-10 20:30N 42°50' E 006°03'16 0.9
2019-Jul-10 02:39N 42°59' E 005°45'317.6
2019-Jul-10 02:29N 42°58' E 005°48'817.5
2019-Jul-10 02:00N 42°54' E 005°58'917.2
2019-Jul-10 01:30N 42°50' E 006°09'917.0
2019-Jul-10 01:00N 42°45' E 006°19'816.9
2019-Jul-10 00:30N 42°41' E 006°29'917.0
2019-Jul-10 00:00N 42°36' E 006°38'917.0
2019-Jul-09 23:30N 42°32' E 006°48'1617.2
2019-Jul-09 22:35N 42°25' E 007°07'217.2
2019-Jul-09 22:28N 42°24' E 007°10'817.0
2019-Jul-09 22:00N 42°20' E 007°19'917.5
2019-Jul-09 21:30N 42°15' E 007°29'917.7
2019-Jul-09 21:00N 42°11' E 007°40'917.6
2019-Jul-09 20:30N 42°07' E 007°50'817.0
2019-Jul-09 20:00N 42°03' E 008°00'  

Dump ship's entire track history